createdAt,value
2023-04-16T00:03:30.017Z,99948
2023-04-16T00:13:30.271Z,99941
2023-04-16T00:23:31.252Z,99957
2023-04-16T00:33:31.822Z,99962
2023-04-16T00:43:32.424Z,99966
2023-04-16T00:53:32.979Z,99959
2023-04-16T01:03:33.870Z,99958
2023-04-16T01:13:34.367Z,99956
2023-04-16T01:23:35.058Z,99960
2023-04-16T01:33:35.859Z,99967
2023-04-16T01:43:38.418Z,99962
2023-04-16T01:53:37.308Z,99970
2023-04-16T02:03:38.106Z,99970
2023-04-16T02:13:38.452Z,99979
2023-04-16T02:23:39.115Z,99979
2023-04-16T02:33:39.738Z,99983
2023-04-16T02:43:40.375Z,99991
2023-04-16T02:53:41.965Z,99994
2023-04-16T03:03:41.482Z,99991
2023-04-16T03:13:42.212Z,99990
2023-04-16T03:23:42.712Z,99995
2023-04-16T03:33:43.430Z,100016
2023-04-16T03:43:43.864Z,100040
2023-04-16T03:53:44.499Z,100049
2023-04-16T04:03:45.156Z,100058
2023-04-16T04:13:45.624Z,100066
2023-04-16T04:23:46.210Z,100075
2023-04-16T04:33:46.766Z,100067
2023-04-16T04:53:47.948Z,100077
2023-04-16T05:23:50.030Z,100100
2023-04-16T05:33:50.613Z,100089
2023-04-16T05:43:51.182Z,100100
2023-04-16T05:53:52.091Z,100133
2023-04-16T06:03:52.865Z,100130
2023-04-16T06:13:53.568Z,100140
2023-04-16T06:23:54.112Z,100138
2023-04-16T06:33:54.935Z,100134
2023-04-16T06:43:55.584Z,100135
2023-04-16T06:53:56.358Z,100124
2023-04-16T07:03:57.312Z,100126
2023-04-16T07:13:57.960Z,100142
2023-04-16T07:23:58.820Z,100137
2023-04-16T07:33:59.822Z,100149
2023-04-16T07:44:00.656Z,100144
2023-04-16T07:54:01.415Z,100139
2023-04-16T08:04:02.867Z,100139
2023-04-16T08:14:03.339Z,100145
2023-04-16T08:24:04.549Z,100137
2023-04-16T08:34:05.432Z,100132
2023-04-16T08:44:06.337Z,100143
2023-04-16T08:54:07.451Z,100151
2023-04-16T09:04:08.937Z,100160
2023-04-16T09:14:09.729Z,100165
2023-04-16T09:24:10.902Z,100166
2023-04-16T09:34:12.075Z,100177
2023-04-16T09:44:13.322Z,100180
2023-04-16T09:54:14.525Z,100182
2023-04-16T10:04:15.691Z,100186
2023-04-16T10:14:16.832Z,100175
2023-04-16T10:24:18.026Z,100172
2023-04-16T10:34:19.214Z,100168
2023-04-16T10:44:20.709Z,100167
2023-04-16T10:54:21.908Z,100157
2023-04-16T11:04:23.132Z,100146
2023-04-16T11:14:24.246Z,100146
2023-04-16T11:24:26.298Z,100147
2023-04-16T11:34:27.003Z,100139
2023-04-16T11:44:28.526Z,100128
2023-04-16T11:54:29.677Z,100125
2023-04-16T12:14:32.749Z,100117
2023-04-16T12:24:34.229Z,100107
2023-04-16T12:34:48.397Z,100107
2023-04-16T12:44:36.957Z,100104
2023-04-16T12:54:38.084Z,100085
2023-04-16T13:04:39.608Z,100079
2023-04-16T13:24:42.334Z,100064
2023-04-16T13:34:43.753Z,100064
2023-04-16T13:44:45.216Z,100051
2023-04-16T13:54:47.643Z,100039
2023-04-16T14:04:47.916Z,100027
2023-04-16T14:34:52.284Z,100017
2023-04-16T14:44:53.637Z,100007
2023-04-16T14:54:55.099Z,100005
2023-04-16T15:04:56.366Z,100007
2023-04-16T15:14:57.855Z,100006
2023-04-16T15:24:59.318Z,100003
2023-04-16T15:35:00.800Z,100007
2023-04-16T15:45:02.277Z,100009
2023-04-16T16:05:04.975Z,100012
2023-04-16T16:15:06.282Z,100013
2023-04-16T16:25:07.663Z,100024
2023-04-16T16:35:09.028Z,100020
2023-04-16T16:45:10.075Z,100023
2023-04-16T16:55:11.367Z,100018
2023-04-16T17:15:15.280Z,100029
2023-04-16T17:25:14.992Z,100042
2023-04-16T17:35:16.250Z,100051
2023-04-16T17:45:17.481Z,100061
2023-04-16T17:55:18.887Z,100055
2023-04-16T18:05:23.402Z,100067
2023-04-16T18:15:21.322Z,100084
2023-04-16T18:25:33.811Z,100093
2023-04-16T18:35:24.281Z,100087
2023-04-16T18:45:28.146Z,100068
2023-04-16T18:55:25.913Z,100072
2023-04-16T19:05:28.641Z,100083
2023-04-16T19:15:31.096Z,100072
2023-04-16T19:25:29.697Z,100068
2023-04-16T19:35:30.869Z,100060
2023-04-16T19:45:31.803Z,100062
2023-04-16T19:55:33.377Z,100065
2023-04-16T20:05:34.497Z,100052
2023-04-16T20:15:36.549Z,100051
2023-04-16T20:25:37.999Z,100054
2023-04-16T20:35:37.921Z,100045
2023-04-16T20:45:39.111Z,100048
2023-04-16T20:55:39.933Z,100045
2023-04-16T21:05:41.083Z,100038
2023-04-16T21:15:42.413Z,100048
2023-04-16T21:25:44.937Z,100042
2023-04-16T21:35:44.618Z,100037
2023-04-16T21:45:47.197Z,100030
2023-04-16T21:55:46.833Z,100025
2023-04-16T22:15:49.290Z,100014
2023-04-16T22:35:51.377Z,100005
2023-04-16T22:45:52.573Z,99996
2023-04-16T22:55:53.772Z,100001
2023-04-16T23:15:55.996Z,99982
2023-04-16T23:25:57.111Z,99973
2023-04-16T23:35:59.449Z,99969
2023-04-16T23:45:59.566Z,99964
2023-04-16T23:56:00.346Z,99950
